Time;durP1;ratioP1;P1;durP2;ratioP2;P2;SDS_P1;SDS_P2;PMS_P1;PMS_P2;Temp;Humidity;BMP_temperature;BMP_pressure;BME280_temperature;BME280_humidity;BME280_pressure;Samples;Min_cycle;Max_cycle;Signal;HPM_P1;HPM_P2
2021/05/31 00:01:56;;;;;;;5.40;3.40;;;11.20;51.50;;;;;;5138749;27;20197;-35
2021/05/31 00:04:22;;;;;;;3.40;2.93;;;11.10;51.50;;;;;;5138618;27;20182;-36
2021/05/31 00:07:09;;;;;;;3.60;2.63;;;11.10;51.70;;;;;;5138180;27;20239;-34
2021/05/31 00:09:36;;;;;;;4.33;3.07;;;11.10;51.90;;;;;;5103373;27;20179;-35
2021/05/31 00:12:05;;;;;;;4.47;3.80;;;11.10;52.10;;;;;;5138786;27;20424;-35
2021/05/31 00:14:31;;;;;;;4.33;3.80;;;11.00;52.10;;;;;;5138517;27;20796;-34
2021/05/31 00:16:56;;;;;;;3.60;3.30;;;11.00;52.40;;;;;;5138654;27;20429;-35
2021/05/31 00:19:22;;;;;;;4.17;2.90;;;10.90;52.60;;;;;;5138326;27;20961;-35
2021/05/31 00:21:49;;;;;;;4.90;2.93;;;10.90;52.80;;;;;;5138264;27;20174;-35
2021/05/31 00:24:15;;;;;;;3.23;2.87;;;10.90;53.00;;;;;;5138211;28;20423;-35
2021/05/31 00:26:40;;;;;;;4.80;3.00;;;10.90;53.40;;;;;;5137855;28;20420;-34
2021/05/31 00:29:06;;;;;;;3.50;2.90;;;10.80;53.40;;;;;;5119837;28;20452;-34
2021/05/31 00:31:32;;;;;;;3.30;3.00;;;10.80;53.60;;;;;;5119963;28;20182;-35
2021/05/31 00:33:59;;;;;;;4.90;3.33;;;10.80;53.80;;;;;;5138498;28;20183;-35
2021/05/31 00:36:25;;;;;;;5.13;3.00;;;10.70;54.20;;;;;;5139639;27;20802;-35
2021/05/31 00:38:51;;;;;;;4.53;3.03;;;10.70;54.80;;;;;;5142660;27;20474;-35
2021/05/31 00:41:17;;;;;;;3.03;2.63;;;10.60;54.40;;;;;;5142800;27;20408;-35
2021/05/31 00:43:42;;;;;;;9.73;2.83;;;10.60;54.50;;;;;;5142701;27;20217;-35
2021/05/31 00:46:09;;;;;;;4.13;3.17;;;10.60;54.70;;;;;;5142093;27;20193;-35
2021/05/31 00:48:36;;;;;;;3.77;3.20;;;10.50;55.00;;;;;;5142003;27;20179;-35
2021/05/31 00:51:04;;;;;;;5.03;3.10;;;10.60;55.40;;;;;;5142425;27;20409;-35
2021/05/31 00:53:31;;;;;;;5.40;3.63;;;10.50;55.80;;;;;;5142304;27;20434;-34
2021/05/31 00:55:56;;;;;;;5.87;3.20;;;10.40;56.50;;;;;;5142296;27;20416;-35
2021/05/31 00:58:27;;;;;;;3.63;3.33;;;10.40;56.60;;;;;;5123904;27;20479;-35
2021/05/31 01:00:58;;;;;;;3.40;2.70;;;10.30;57.10;;;;;;5123766;27;20449;-35
2021/05/31 01:03:24;;;;;;;3.27;2.97;;;10.30;57.30;;;;;;5141841;27;20861;-35
2021/05/31 01:05:51;;;;;;;3.50;2.90;;;10.30;57.60;;;;;;5140866;27;20404;-34
2021/05/31 01:08:26;;;;;;;5.37;3.23;;;10.30;57.70;;;;;;5140928;27;20428;-33
2021/05/31 01:10:55;;;;;;;3.70;3.03;;;10.30;58.20;;;;;;5122738;27;20408;-33
2021/05/31 01:13:39;;;;;;;4.00;3.00;;;10.30;58.40;;;;;;5142443;27;20492;-35
2021/05/31 01:16:07;;;;;;;6.77;3.20;;;10.30;58.60;;;;;;5124389;27;20655;-35
2021/05/31 01:18:42;;;;;;;4.37;3.23;;;10.30;58.60;;;;;;5105853;27;20566;-35
2021/05/31 01:21:37;;;;;;;4.13;2.90;;;10.30;59.10;;;;;;5122766;27;20507;-34
2021/05/31 01:24:23;;;;;;;5.87;3.23;;;10.20;59.20;;;;;;5140754;27;20424;-35
2021/05/31 01:27:09;;;;;;;3.33;3.03;;;10.20;60.00;;;;;;5122598;27;20528;-34
2021/05/31 01:29:35;;;;;;;3.33;3.03;;;10.10;60.60;;;;;;5140868;27;20420;-35
2021/05/31 01:32:04;;;;;;;5.43;3.93;;;10.00;60.70;;;;;;5122972;27;20482;-35
2021/05/31 01:34:33;;;;;;;3.73;3.37;;;10.00;61.30;;;;;;5141187;27;20690;-35
2021/05/31 01:37:02;;;;;;;4.20;2.93;;;10.00;61.90;;;;;;5140647;27;20507;-34
2021/05/31 01:39:32;;;;;;;3.10;2.63;;;10.00;62.30;;;;;;5122093;27;20480;-34
2021/05/31 01:41:58;;;;;;;4.93;3.23;;;10.00;62.40;;;;;;5140916;27;20416;-35
2021/05/31 01:44:24;;;;;;;3.23;2.80;;;10.00;62.80;;;;;;5121993;27;20436;-35
2021/05/31 01:46:50;;;;;;;4.07;2.70;;;10.00;62.90;;;;;;5122270;27;20423;-35
2021/05/31 01:49:16;;;;;;;5.10;3.20;;;10.00;62.90;;;;;;5138854;27;20874;-35
2021/05/31 01:51:44;;;;;;;6.03;3.20;;;10.00;63.10;;;;;;5140023;27;20186;-43
2021/05/31 01:54:11;;;;;;;2.70;2.50;;;10.00;63.80;;;;;;5121985;27;20857;-41
2021/05/31 01:56:38;;;;;;;2.73;2.53;;;10.00;63.70;;;;;;5139963;27;20432;-41
2021/05/31 01:59:05;;;;;;;11.73;3.30;;;9.90;65.70;;;;;;5140015;27;20468;-38
2021/05/31 02:01:32;;;;;;;3.27;2.97;;;9.90;65.60;;;;;;5139714;27;20417;-39
2021/05/31 02:03:58;;;;;;;4.47;2.97;;;9.90;66.60;;;;;;5138304;27;20728;-41
2021/05/31 02:06:24;;;;;;;3.70;3.30;;;9.90;67.40;;;;;;5139092;27;20889;-40
2021/05/31 02:08:49;;;;;;;4.97;2.90;;;9.80;67.80;;;;;;5122818;27;20181;-41
2021/05/31 02:11:21;;;;;;;3.83;3.00;;;9.80;68.50;;;;;;5139708;27;20179;-41
2021/05/31 02:13:48;;;;;;;3.33;2.73;;;9.70;69.20;;;;;;5139512;27;20238;-41
2021/05/31 02:16:20;;;;;;;3.30;3.00;;;9.70;69.60;;;;;;5121188;27;20504;-40
2021/05/31 02:18:49;;;;;;;4.50;2.77;;;9.60;70.10;;;;;;5109430;28;20760;-42
2021/05/31 02:21:17;;;;;;;3.30;2.90;;;9.60;70.70;;;;;;5120613;27;20741;-42
2021/05/31 02:23:43;;;;;;;6.23;3.43;;;9.60;71.00;;;;;;5138980;27;20428;-41
2021/05/31 02:26:14;;;;;;;5.53;3.10;;;9.60;71.50;;;;;;5139367;27;20411;-41
2021/05/31 02:28:41;;;;;;;4.33;3.10;;;9.60;72.10;;;;;;5139472;27;20439;-41
2021/05/31 02:31:07;;;;;;;3.97;3.10;;;9.50;72.50;;;;;;5138985;27;20815;-41
2021/05/31 02:33:33;;;;;;;3.80;3.40;;;9.50;73.30;;;;;;5138923;27;20804;-40
2021/05/31 02:35:59;;;;;;;3.60;2.90;;;9.50;73.50;;;;;;5139341;27;20464;-42
2021/05/31 02:38:24;;;;;;;4.50;3.43;;;9.40;74.00;;;;;;5138926;27;20463;-42
2021/05/31 02:40:50;;;;;;;3.60;3.07;;;9.40;74.60;;;;;;5139032;27;20171;-40
2021/05/31 02:43:15;;;;;;;4.43;3.63;;;9.40;75.60;;;;;;5139106;27;20251;-42
2021/05/31 02:45:42;;;;;;;9.30;2.73;;;9.40;75.50;;;;;;5138793;27;20214;-42
2021/05/31 02:48:08;;;;;;;5.17;3.87;;;9.40;75.90;;;;;;5132456;27;20195;-41
2021/05/31 02:50:34;;;;;;;3.67;3.10;;;9.40;76.10;;;;;;5128914;27;20425;-39
2021/05/31 02:53:01;;;;;;;3.90;3.20;;;9.40;76.20;;;;;;5138913;27;20444;-41
2021/05/31 02:55:29;;;;;;;3.30;2.97;;;9.40;76.40;;;;;;5138946;27;20516;-42
2021/05/31 02:57:55;;;;;;;3.73;3.03;;;9.40;76.40;;;;;;5138809;27;20582;-41
2021/05/31 03:00:23;;;;;;;4.10;3.33;;;9.40;76.50;;;;;;5138515;27;20401;-42
2021/05/31 03:02:49;;;;;;;3.80;2.90;;;9.40;76.70;;;;;;5137094;27;20409;-41
2021/05/31 03:05:17;;;;;;;4.00;3.10;;;9.30;76.90;;;;;;5123741;27;20423;-43
2021/05/31 03:07:44;;;;;;;7.37;3.90;;;9.30;77.60;;;;;;5138739;27;20419;-43
2021/05/31 03:10:10;;;;;;;6.67;3.30;;;9.30;77.60;;;;;;5119939;27;20428;-42
2021/05/31 03:12:36;;;;;;;5.20;3.60;;;9.20;77.80;;;;;;5137906;27;20493;-42
2021/05/31 03:15:04;;;;;;;3.80;3.50;;;9.30;78.00;;;;;;5138548;27;20443;-42
2021/05/31 03:17:30;;;;;;;5.30;3.17;;;9.30;77.80;;;;;;5138756;27;20421;-43
2021/05/31 03:19:56;;;;;;;3.67;3.37;;;9.30;77.80;;;;;;5138381;27;20529;-42
2021/05/31 03:22:22;;;;;;;4.00;3.53;;;9.40;77.40;;;;;;5138411;27;20179;-41
2021/05/31 03:24:47;;;;;;;4.13;3.73;;;9.40;77.00;;;;;;5137920;27;20511;-42
2021/05/31 03:27:13;;;;;;;5.90;3.47;;;9.40;77.10;;;;;;5138109;27;20232;-42
2021/05/31 03:29:39;;;;;;;5.13;3.53;;;9.30;77.90;;;;;;5137842;27;20171;-42
2021/05/31 03:32:04;;;;;;;4.30;3.43;;;9.20;79.20;;;;;;5137773;27;20195;-41
2021/05/31 03:34:30;;;;;;;2.93;2.67;;;9.10;79.60;;;;;;5138455;27;20190;-42
2021/05/31 03:36:56;;;;;;;3.77;3.30;;;9.10;79.70;;;;;;5137845;27;20201;-42
2021/05/31 03:39:21;;;;;;;5.00;3.43;;;9.10;79.90;;;;;;5137602;27;20286;-41
2021/05/31 03:41:47;;;;;;;4.10;2.80;;;9.10;80.50;;;;;;5137938;27;20172;-42
2021/05/31 03:44:12;;;;;;;3.90;3.50;;;9.00;81.30;;;;;;5137727;27;20525;-42
2021/05/31 03:46:38;;;;;;;3.83;3.50;;;9.10;81.30;;;;;;5137821;27;20236;-42
2021/05/31 03:49:04;;;;;;;4.30;3.90;;;9.10;81.50;;;;;;5120520;27;20186;-42
2021/05/31 03:51:30;;;;;;;3.90;3.10;;;9.10;82.00;;;;;;5137719;27;20187;-42
2021/05/31 03:53:55;;;;;;;5.00;3.30;;;9.10;81.90;;;;;;5137578;27;20183;-42
2021/05/31 03:56:21;;;;;;;6.10;4.20;;;9.10;81.80;;;;;;5119592;27;20265;-42
2021/05/31 03:58:48;;;;;;;3.73;3.33;;;9.10;81.60;;;;;;5137223;27;20606;-41
2021/05/31 04:01:15;;;;;;;4.50;3.80;;;9.00;82.80;;;;;;5137315;27;20206;-41
2021/05/31 04:03:41;;;;;;;4.10;3.70;;;9.00;83.10;;;;;;5137128;27;20436;-43
2021/05/31 04:11:38;;;;;;;4.23;3.53;;;9.00;84.20;;;;;;5136079;27;20444;-41
2021/05/31 04:14:09;;;;;;;4.10;3.10;;;9.00;84.10;;;;;;5136162;27;20471;-42
2021/05/31 04:16:35;;;;;;;4.33;3.17;;;9.10;84.00;;;;;;5136639;27;20523;-41
2021/05/31 04:19:02;;;;;;;3.77;3.33;;;9.10;84.20;;;;;;5136843;27;20468;-41
2021/05/31 04:21:28;;;;;;;5.40;3.90;;;9.10;84.20;;;;;;5137142;27;20481;-41
2021/05/31 04:23:54;;;;;;;4.80;3.20;;;9.20;84.50;;;;;;5120422;27;20426;-41
2021/05/31 04:26:20;;;;;;;5.40;3.63;;;9.10;84.50;;;;;;5137419;28;20465;-39
2021/05/31 04:28:45;;;;;;;4.57;4.00;;;9.30;84.70;;;;;;5137322;28;20428;-40
2021/05/31 04:31:11;;;;;;;5.93;4.07;;;9.30;84.60;;;;;;5136609;28;20431;-42
2021/05/31 04:33:37;;;;;;;4.63;4.23;;;9.40;84.50;;;;;;5136117;28;20428;-42
2021/05/31 04:36:03;;;;;;;4.37;3.97;;;9.50;84.10;;;;;;5135691;28;20255;-41
2021/05/31 04:38:28;;;;;;;4.40;3.50;;;9.50;84.30;;;;;;5136864;28;20210;-40
2021/05/31 04:40:54;;;;;;;4.53;4.13;;;9.50;84.70;;;;;;5119028;28;20482;-42
2021/05/31 04:43:20;;;;;;;5.60;4.07;;;9.60;84.60;;;;;;5119249;28;20182;-42
2021/05/31 04:45:46;;;;;;;5.30;4.20;;;9.70;83.90;;;;;;5137010;28;20175;-44
2021/05/31 04:48:12;;;;;;;7.23;4.30;;;9.80;83.70;;;;;;5136627;28;20289;-42
2021/05/31 04:50:37;;;;;;;4.83;3.50;;;9.80;84.30;;;;;;5117992;28;20504;-40
2021/05/31 04:53:03;;;;;;;4.80;3.77;;;10.00;81.50;;;;;;5117132;28;20278;-40
2021/05/31 04:55:29;;;;;;;4.40;3.60;;;10.10;81.20;;;;;;5134715;28;20270;-40
2021/05/31 04:57:54;;;;;;;5.83;4.07;;;10.20;81.40;;;;;;5135054;28;20309;-41
2021/05/31 05:00:20;;;;;;;4.40;3.37;;;10.20;81.30;;;;;;5135271;28;20175;-42
2021/05/31 05:02:46;;;;;;;7.47;4.27;;;10.30;81.10;;;;;;5116598;28;20175;-41
2021/05/31 05:05:12;;;;;;;4.20;3.80;;;10.40;80.60;;;;;;5135216;28;20421;-41
2021/05/31 05:07:45;;;;;;;4.90;3.90;;;10.60;80.50;;;;;;5134461;28;20261;-40
2021/05/31 05:10:21;;;;;;;4.93;4.10;;;10.70;79.60;;;;;;5135658;28;20424;-41
2021/05/31 05:12:49;;;;;;;6.80;4.90;;;10.80;79.50;;;;;;5136201;28;20762;-42
2021/05/31 05:15:17;;;;;;;4.40;4.00;;;10.90;79.60;;;;;;5136612;28;20408;-42
2021/05/31 05:17:43;;;;;;;5.57;3.33;;;11.00;79.70;;;;;;5136747;28;20435;-42
2021/05/31 05:20:10;;;;;;;4.23;3.80;;;11.20;79.20;;;;;;5118434;28;20433;-42
2021/05/31 05:22:36;;;;;;;6.90;4.07;;;11.30;79.00;;;;;;5136964;27;20412;-40
2021/05/31 05:25:02;;;;;;;4.40;3.93;;;11.30;79.20;;;;;;5140317;27;20431;-41
2021/05/31 05:27:28;;;;;;;5.00;4.50;;;11.40;78.50;;;;;;5140319;27;20232;-42
2021/05/31 05:29:53;;;;;;;4.70;3.67;;;11.60;78.60;;;;;;5121521;27;20439;-43
2021/05/31 05:32:19;;;;;;;4.90;4.03;;;11.70;78.20;;;;;;5140326;27;20192;-42
2021/05/31 05:34:46;;;;;;;4.47;3.50;;;11.80;78.50;;;;;;5139371;27;20175;-42
2021/05/31 05:37:18;;;;;;;5.37;4.30;;;11.90;78.50;;;;;;5139942;27;20316;-42
2021/05/31 05:42:30;;;;;;;8.00;4.20;;;12.10;78.10;;;;;;5139153;27;20435;-41
2021/05/31 05:49:47;;;;;;;5.90;4.73;;;12.40;76.90;;;;;;5137970;27;20435;-42
2021/05/31 05:52:13;;;;;;;5.57;4.13;;;12.70;75.90;;;;;;5137548;27;20180;-43
2021/05/31 05:54:38;;;;;;;4.80;4.27;;;12.80;76.00;;;;;;5137343;27;20163;-42
2021/05/31 05:57:05;;;;;;;4.87;3.83;;;12.90;75.10;;;;;;5136499;27;20800;-42
2021/05/31 05:59:30;;;;;;;8.27;4.80;;;13.10;73.30;;;;;;5136155;27;20331;-42
2021/05/31 06:01:56;;;;;;;5.83;4.13;;;13.30;71.50;;;;;;5136045;27;20566;-39
2021/05/31 06:04:22;;;;;;;4.60;4.20;;;13.40;71.90;;;;;;5137138;27;20207;-41
2021/05/31 06:06:48;;;;;;;4.70;3.83;;;13.60;71.40;;;;;;5137235;27;20171;-40
2021/05/31 06:09:17;;;;;;;5.60;4.53;;;13.70;70.40;;;;;;5137630;27;20174;-41
2021/05/31 06:11:44;;;;;;;4.80;3.87;;;13.90;69.10;;;;;;5137250;27;20584;-39
2021/05/31 06:14:10;;;;;;;4.60;3.87;;;14.10;69.30;;;;;;5138797;27;20897;-40
2021/05/31 06:16:37;;;;;;;4.60;3.97;;;14.10;68.40;;;;;;5138608;27;20434;-41
2021/05/31 06:19:03;;;;;;;4.50;4.10;;;14.00;68.80;;;;;;5111538;27;20474;-39
2021/05/31 06:21:29;;;;;;;6.30;4.70;;;14.00;68.70;;;;;;5138582;27;20423;-41
2021/05/31 06:23:54;;;;;;;5.03;3.90;;;14.00;68.90;;;;;;5138691;27;20424;-41
2021/05/31 06:26:21;;;;;;;4.00;3.27;;;14.20;68.00;;;;;;5138746;27;20549;-40
2021/05/31 06:28:46;;;;;;;5.20;4.00;;;14.40;68.60;;;;;;5138896;27;20175;-39
2021/05/31 06:31:12;;;;;;;4.70;3.73;;;14.60;67.20;;;;;;5138599;27;20445;-39
2021/05/31 06:33:38;;;;;;;3.73;3.40;;;14.90;66.50;;;;;;5122594;27;20184;-39
2021/05/31 06:36:07;;;;;;;3.80;3.40;;;15.20;65.30;;;;;;5136901;27;20282;-41
2021/05/31 06:38:33;;;;;;;6.10;3.70;;;15.30;65.00;;;;;;5137251;27;20302;-39
2021/05/31 06:40:59;;;;;;;3.87;3.37;;;15.50;62.60;;;;;;5138291;27;20786;-39
2021/05/31 06:43:25;;;;;;;4.27;3.97;;;15.60;63.20;;;;;;5137401;27;20429;-42
2021/05/31 06:45:50;;;;;;;5.10;3.90;;;15.70;63.10;;;;;;5137698;27;20486;-41
2021/05/31 06:48:16;;;;;;;3.63;3.33;;;15.70;62.40;;;;;;5136468;27;20179;-40
2021/05/31 06:50:43;;;;;;;4.50;3.70;;;15.60;61.70;;;;;;5135874;27;20183;-40
2021/05/31 06:53:09;;;;;;;3.57;3.27;;;15.70;60.70;;;;;;5136612;27;20267;-40
2021/05/31 06:55:35;;;;;;;3.83;3.00;;;15.70;60.40;;;;;;5135741;27;20478;-41
2021/05/31 06:58:02;;;;;;;4.50;3.67;;;16.20;60.30;;;;;;5135052;27;20456;-42
2021/05/31 07:00:28;;;;;;;3.30;2.80;;;16.30;61.00;;;;;;5101190;27;20436;-44
2021/05/31 07:02:54;;;;;;;4.20;3.40;;;16.70;60.70;;;;;;5117937;27;20800;-43
2021/05/31 07:05:21;;;;;;;3.80;3.40;;;16.90;60.50;;;;;;5118521;27;20528;-43
2021/05/31 07:07:46;;;;;;;3.70;3.40;;;17.10;57.70;;;;;;5136753;27;20420;-43
2021/05/31 07:10:14;;;;;;;4.97;3.33;;;16.90;57.80;;;;;;5135034;27;20429;-42
2021/05/31 07:12:40;;;;;;;3.50;3.20;;;17.20;55.60;;;;;;5116715;27;20258;-43
2021/05/31 07:15:06;;;;;;;4.27;3.20;;;17.20;55.30;;;;;;5135756;27;20425;-43
2021/05/31 07:17:33;;;;;;;3.57;3.27;;;17.20;55.70;;;;;;5117575;27;20435;-42
2021/05/31 07:20:00;;;;;;;3.80;3.13;;;17.40;54.90;;;;;;5117672;27;20511;-43
2021/05/31 07:22:26;;;;;;;3.63;3.33;;;17.40;55.30;;;;;;5136148;27;20499;-42
2021/05/31 07:24:52;;;;;;;3.27;2.77;;;17.40;55.80;;;;;;5135823;27;20860;-43
2021/05/31 07:27:19;;;;;;;4.90;3.20;;;17.50;54.80;;;;;;5118514;27;20432;-43
2021/05/31 07:29:45;;;;;;;3.60;3.30;;;17.70;54.80;;;;;;5117942;27;20432;-43
2021/05/31 07:32:11;;;;;;;4.70;3.20;;;18.00;53.70;;;;;;5135392;27;20489;-43
2021/05/31 07:34:37;;;;;;;2.60;2.40;;;18.20;52.60;;;;;;5136768;27;20440;-42
2021/05/31 07:37:04;;;;;;;5.07;3.10;;;18.30;53.20;;;;;;5117946;27;20784;-42
2021/05/31 07:39:29;;;;;;;3.97;2.80;;;18.70;52.90;;;;;;5100665;27;20275;-42
2021/05/31 07:41:55;;;;;;;4.43;2.70;;;18.80;52.00;;;;;;5135295;27;20421;-44
2021/05/31 07:44:21;;;;;;;3.10;2.60;;;18.70;49.60;;;;;;5115959;27;20306;-43
2021/05/31 07:46:47;;;;;;;3.90;2.80;;;18.50;50.10;;;;;;5134801;27;20182;-43
2021/05/31 07:49:13;;;;;;;3.97;3.40;;;18.50;49.50;;;;;;5135246;27;20485;-43
2021/05/31 07:51:43;;;;;;;3.30;3.00;;;18.70;49.00;;;;;;5116840;27;20183;-43
2021/05/31 07:54:09;;;;;;;4.13;2.70;;;18.60;49.10;;;;;;5134277;27;20424;-41
2021/05/31 07:56:36;;;;;;;6.10;3.13;;;18.70;48.70;;;;;;5135918;27;20951;-41
2021/05/31 07:59:02;;;;;;;3.47;3.17;;;18.90;46.90;;;;;;5118855;27;20212;-43
2021/05/31 08:01:28;;;;;;;4.77;3.63;;;18.70;48.20;;;;;;5136140;27;20424;-41
2021/05/31 08:03:54;;;;;;;4.37;3.40;;;19.00;47.60;;;;;;5136342;27;20664;-42
2021/05/31 08:06:19;;;;;;;3.97;2.73;;;19.20;47.40;;;;;;5136491;27;20257;-42
2021/05/31 08:08:45;;;;;;;4.80;3.43;;;19.40;47.80;;;;;;5136598;27;20551;-44
2021/05/31 08:11:11;;;;;;;5.67;3.03;;;19.70;47.30;;;;;;5136121;27;20517;-42
2021/05/31 08:13:37;;;;;;;4.50;3.50;;;20.00;46.70;;;;;;5136035;27;20241;-43
2021/05/31 08:16:05;;;;;;;2.90;2.70;;;20.50;45.60;;;;;;5136269;27;20833;-44
2021/05/31 08:18:30;;;;;;;3.50;2.50;;;20.60;46.20;;;;;;5117880;27;20495;-43
2021/05/31 08:20:56;;;;;;;4.03;3.27;;;20.50;45.60;;;;;;5136434;27;20451;-44
2021/05/31 08:23:22;;;;;;;3.37;3.07;;;20.60;46.90;;;;;;5134722;27;20171;-43
2021/05/31 08:25:48;;;;;;;3.17;2.87;;;20.90;44.60;;;;;;5135759;27;20250;-43
2021/05/31 08:28:13;;;;;;;3.30;3.00;;;21.10;43.80;;;;;;5135684;28;20182;-42
2021/05/31 08:30:43;;;;;;;3.07;2.80;;;20.80;44.90;;;;;;5135762;28;20179;-43
2021/05/31 08:33:09;;;;;;;3.23;2.70;;;21.10;44.70;;;;;;5136399;28;20179;-43
2021/05/31 08:35:45;;;;;;;3.10;2.80;;;21.20;42.70;;;;;;5136477;28;20688;-43
2021/05/31 08:38:11;;;;;;;3.90;3.47;;;21.50;42.30;;;;;;5134706;28;20470;-42
2021/05/31 08:40:37;;;;;;;3.60;3.27;;;21.20;44.00;;;;;;5116027;28;20417;-40
2021/05/31 08:43:03;;;;;;;3.63;3.33;;;21.70;42.60;;;;;;5135081;28;20290;-40
2021/05/31 08:45:30;;;;;;;5.63;2.27;;;21.50;41.10;;;;;;5135667;28;20511;-44
2021/05/31 08:47:57;;;;;;;3.27;2.63;;;22.00;42.00;;;;;;5135393;28;20409;-43
2021/05/31 08:50:29;;;;;;;3.40;2.90;;;21.80;40.60;;;;;;5135184;28;20408;-43
2021/05/31 08:52:54;;;;;;;3.50;2.90;;;22.10;40.80;;;;;;5136489;28;20485;-43
2021/05/31 08:55:22;;;;;;;4.87;3.07;;;22.30;38.60;;;;;;5136950;28;20412;-43
2021/05/31 08:57:49;;;;;;;2.90;2.50;;;22.50;37.70;;;;;;5137276;27;20197;-43
2021/05/31 09:00:17;;;;;;;2.63;2.43;;;22.50;37.90;;;;;;5140558;27;20408;-41
2021/05/31 09:02:43;;;;;;;3.03;2.43;;;22.40;37.50;;;;;;5140651;27;20453;-42
2021/05/31 09:05:10;;;;;;;3.47;2.43;;;22.80;38.50;;;;;;5140300;27;20455;-43
2021/05/31 09:07:35;;;;;;;3.43;2.67;;;23.50;36.80;;;;;;5122093;27;20416;-44
2021/05/31 09:10:04;;;;;;;3.93;2.90;;;23.70;34.80;;;;;;5104451;27;20446;-43
2021/05/31 09:12:35;;;;;;;4.30;2.63;;;23.80;34.80;;;;;;5121015;27;20285;-42
2021/05/31 09:15:10;;;;;;;2.47;2.20;;;23.90;34.70;;;;;;5139822;27;20690;-45
2021/05/31 09:17:36;;;;;;;3.17;2.40;;;23.80;35.60;;;;;;5103483;27;20706;-44
2021/05/31 09:20:04;;;;;;;3.57;3.27;;;23.70;38.10;;;;;;5137582;27;20794;-43
2021/05/31 09:22:29;;;;;;;3.07;2.70;;;24.60;37.10;;;;;;5137175;27;20518;-44
2021/05/31 09:25:02;;;;;;;2.80;2.50;;;25.00;35.30;;;;;;5118194;27;20766;-44
2021/05/31 09:27:29;;;;;;;3.03;2.47;;;25.60;35.20;;;;;;5137481;27;20170;-45
2021/05/31 09:30:05;;;;;;;3.40;3.00;;;25.90;34.90;;;;;;5137407;27;20991;-45
2021/05/31 09:32:31;;;;;;;3.23;2.60;;;26.50;34.70;;;;;;5137036;27;20424;-44
2021/05/31 09:35:05;;;;;;;3.37;3.07;;;26.90;34.30;;;;;;5118689;27;20421;-44
2021/05/31 09:37:31;;;;;;;4.67;2.90;;;27.20;34.20;;;;;;5137540;27;20614;-45
2021/05/31 09:40:04;;;;;;;3.30;3.00;;;27.70;32.40;;;;;;5137191;27;20466;-43
2021/05/31 09:42:31;;;;;;;4.27;3.27;;;27.10;30.90;;;;;;5119323;27;20511;-43
2021/05/31 09:45:07;;;;;;;3.63;3.27;;;26.60;31.50;;;;;;5137369;27;20449;-44
2021/05/31 09:47:35;;;;;;;5.27;2.70;;;26.60;33.40;;;;;;5138231;27;20490;-43
2021/05/31 09:50:04;;;;;;;3.80;3.43;;;26.80;32.70;;;;;;5137942;27;20748;-42
2021/05/31 09:52:30;;;;;;;3.90;2.70;;;27.10;31.00;;;;;;5138409;27;20488;-43
2021/05/31 09:54:55;;;;;;;3.10;2.80;;;27.30;32.80;;;;;;5138704;27;20428;-44
2021/05/31 09:57:24;;;;;;;3.60;2.70;;;27.80;32.90;;;;;;5137340;27;20781;-43
2021/05/31 09:59:57;;;;;;;3.00;2.80;;;27.80;32.10;;;;;;5138688;27;20213;-43
2021/05/31 10:08:03;;;;;;;3.33;2.50;;;28.10;31.30;;;;;;5136346;27;20787;-44
2021/05/31 10:10:30;;;;;;;4.87;2.40;;;28.00;31.00;;;;;;5134425;27;20420;-43
2021/05/31 10:12:56;;;;;;;3.63;2.80;;;28.20;31.00;;;;;;5138573;27;20460;-43
2021/05/31 10:15:25;;;;;;;7.47;3.40;;;29.00;31.50;;;;;;5120339;27;20553;-44
2021/05/31 10:17:55;;;;;;;2.90;2.70;;;28.70;30.60;;;;;;5136786;27;20417;-44
2021/05/31 10:20:22;;;;;;;3.33;3.13;;;29.00;30.90;;;;;;5136997;27;20419;-44
2021/05/31 10:22:48;;;;;;;3.73;3.20;;;29.20;30.30;;;;;;5137262;27;20417;-47
2021/05/31 10:25:15;;;;;;;3.30;2.80;;;30.00;30.30;;;;;;5136354;27;20427;-45
2021/05/31 10:27:42;;;;;;;3.33;3.03;;;30.70;30.10;;;;;;5101737;27;20438;-44
2021/05/31 10:30:13;;;;;;;2.83;2.63;;;30.10;29.50;;;;;;5137219;27;20417;-43
2021/05/31 10:32:39;;;;;;;7.40;3.30;;;29.70;29.50;;;;;;5136963;27;20444;-44
2021/05/31 10:35:24;;;;;;;3.20;3.00;;;30.70;28.80;;;;;;5136967;27;20445;-44
2021/05/31 10:37:57;;;;;;;3.70;3.40;;;31.40;28.30;;;;;;5135853;27;20179;-44
2021/05/31 10:40:47;;;;;;;2.90;2.70;;;31.70;28.10;;;;;;5118085;27;20743;-45
2021/05/31 10:43:19;;;;;;;3.70;3.40;;;32.20;28.00;;;;;;5123638;27;20535;-45
2021/05/31 10:45:45;;;;;;;3.73;2.90;;;31.70;27.30;;;;;;5117520;27;20741;-43
2021/05/31 10:48:16;;;;;;;3.30;3.00;;;31.90;27.30;;;;;;5135337;27;20420;-41
2021/05/31 10:50:45;;;;;;;2.83;2.60;;;32.10;27.70;;;;;;5137921;27;20384;-45
2021/05/31 10:53:21;;;;;;;3.73;3.10;;;31.90;27.30;;;;;;5137522;27;20416;-43
2021/05/31 10:55:53;;;;;;;3.90;3.30;;;31.90;27.60;;;;;;5138434;27;20506;-44
2021/05/31 10:58:22;;;;;;;3.23;2.93;;;32.60;27.60;;;;;;5137258;27;20441;-43
2021/05/31 11:01:05;;;;;;;2.97;2.77;;;32.40;26.30;;;;;;5137132;27;20450;-43
2021/05/31 11:03:48;;;;;;;4.00;3.27;;;32.60;27.90;;;;;;5136929;27;20443;-43
2021/05/31 11:06:16;;;;;;;3.20;2.87;;;32.70;26.20;;;;;;5136871;27;20730;-42
2021/05/31 11:08:52;;;;;;;3.23;3.03;;;32.70;26.20;;;;;;5135592;27;20390;-42
2021/05/31 11:11:25;;;;;;;3.70;3.23;;;32.80;25.50;;;;;;5136096;27;20424;-43
2021/05/31 11:13:51;;;;;;;3.00;2.80;;;32.50;26.30;;;;;;5136060;27;20761;-43
2021/05/31 11:16:17;;;;;;;3.40;2.90;;;32.80;24.90;;;;;;5135335;27;20490;-43
2021/05/31 11:18:47;;;;;;;3.23;3.03;;;32.90;24.70;;;;;;5117591;27;20474;-43
2021/05/31 11:21:28;;;;;;;3.67;3.37;;;33.20;25.70;;;;;;5135077;27;20421;-42
2021/05/31 11:24:14;;;;;;;3.10;2.80;;;33.70;25.50;;;;;;5116210;27;20537;-42
2021/05/31 11:26:42;;;;;;;4.30;3.10;;;33.80;25.80;;;;;;5135267;27;20468;-43
2021/05/31 11:29:10;;;;;;;3.50;3.17;;;33.60;26.30;;;;;;5135255;27;20518;-44
2021/05/31 11:31:38;;;;;;;3.50;3.23;;;33.80;24.60;;;;;;5100098;27;20417;-43
2021/05/31 11:34:05;;;;;;;2.80;2.60;;;32.70;25.40;;;;;;5117489;27;20444;-43
2021/05/31 11:36:43;;;;;;;3.43;3.10;;;32.70;26.70;;;;;;5134136;27;20418;-41
2021/05/31 11:39:14;;;;;;;3.87;3.57;;;33.00;26.60;;;;;;5116593;27;20461;-42
2021/05/31 11:41:47;;;;;;;3.20;2.90;;;32.00;27.00;;;;;;5136523;27;20417;-43
2021/05/31 11:44:25;;;;;;;3.00;2.80;;;33.00;27.30;;;;;;5135984;27;20697;-44
2021/05/31 11:47:01;;;;;;;3.23;2.93;;;33.30;26.80;;;;;;5136122;27;20673;-44
2021/05/31 11:49:28;;;;;;;3.07;2.73;;;33.20;26.00;;;;;;5135267;27;20742;-44
2021/05/31 11:52:12;;;;;;;3.13;2.83;;;33.90;24.70;;;;;;5117697;27;20399;-42
2021/05/31 11:54:40;;;;;;;3.40;3.10;;;34.60;24.20;;;;;;5101519;27;20433;-43
2021/05/31 11:57:08;;;;;;;3.30;3.10;;;34.10;25.10;;;;;;5136453;27;20478;-44
2021/05/31 11:59:35;;;;;;;3.20;3.00;;;34.20;25.40;;;;;;5136056;27;20513;-44
2021/05/31 12:02:05;;;;;;;4.10;3.50;;;34.60;25.30;;;;;;5135159;27;20483;-44
2021/05/31 12:04:31;;;;;;;3.03;2.83;;;35.30;24.90;;;;;;5135722;27;20428;-44
2021/05/31 12:07:05;;;;;;;3.90;3.43;;;34.90;24.70;;;;;;5101279;27;20448;-44
2021/05/31 12:09:31;;;;;;;2.63;2.43;;;34.30;24.40;;;;;;5117476;27;20689;-45
2021/05/31 12:11:57;;;;;;;2.87;2.67;;;33.80;25.30;;;;;;5135776;27;20736;-43
2021/05/31 12:14:25;;;;;;;3.07;2.60;;;34.10;23.70;;;;;;5135395;27;20449;-43
2021/05/31 12:17:00;;;;;;;3.00;2.80;;;34.40;24.40;;;;;;5116655;27;20416;-43
2021/05/31 12:19:27;;;;;;;2.87;2.57;;;34.40;24.80;;;;;;5116193;28;20455;-44
2021/05/31 12:21:57;;;;;;;4.70;3.30;;;34.70;24.90;;;;;;5133833;27;20556;-43
2021/05/31 12:24:27;;;;;;;3.80;3.50;;;34.70;24.80;;;;;;5135481;27;20428;-43
2021/05/31 12:26:53;;;;;;;3.30;3.10;;;35.20;24.60;;;;;;5116838;28;20379;-43
2021/05/31 12:29:19;;;;;;;2.87;2.67;;;35.90;24.00;;;;;;5134408;28;20544;-43
2021/05/31 12:31:48;;;;;;;3.33;3.03;;;35.40;22.50;;;;;;5133726;27;20523;-45
2021/05/31 12:34:26;;;;;;;2.73;2.53;;;34.30;24.30;;;;;;5116124;28;20243;-42
2021/05/31 12:36:53;;;;;;;3.30;3.00;;;33.80;25.20;;;;;;5134470;28;20478;-44
2021/05/31 12:39:20;;;;;;;2.90;2.70;;;34.00;25.00;;;;;;5099959;28;20458;-44
2021/05/31 12:41:46;;;;;;;3.23;2.83;;;35.00;24.70;;;;;;5100145;28;20626;-44
2021/05/31 12:44:12;;;;;;;3.20;2.90;;;35.80;22.60;;;;;;5117899;28;20455;-44
2021/05/31 12:46:43;;;;;;;3.20;2.90;;;35.40;23.50;;;;;;5118038;28;20175;-45
2021/05/31 12:49:11;;;;;;;3.10;2.90;;;35.60;24.20;;;;;;5117101;28;20758;-44
2021/05/31 12:51:37;;;;;;;3.33;3.13;;;36.10;23.80;;;;;;5135595;28;20585;-44
2021/05/31 12:54:04;;;;;;;3.50;3.20;;;36.00;23.90;;;;;;5118074;28;20512;-42
2021/05/31 12:56:36;;;;;;;3.20;3.00;;;34.60;24.10;;;;;;5116205;28;20433;-44
2021/05/31 12:59:07;;;;;;;2.70;2.50;;;35.10;24.40;;;;;;5117319;28;20713;-44
2021/05/31 13:01:34;;;;;;;3.10;2.80;;;35.90;24.10;;;;;;5133976;28;20428;-45
2021/05/31 13:04:00;;;;;;;3.97;3.67;;;36.30;24.00;;;;;;5133052;28;20428;-44
2021/05/31 13:06:52;;;;;;;2.87;2.67;;;36.70;24.50;;;;;;5115276;28;20416;-43
2021/05/31 13:09:25;;;;;;;3.57;3.37;;;36.70;23.20;;;;;;5129064;28;20881;-42
2021/05/31 13:11:52;;;;;;;3.10;2.90;;;36.40;23.30;;;;;;5098068;28;20621;-43